Maldives Meteorological Service

SYNOP

Station Code SYNOP
43555
AAXX 30154 43555 42465 23406 10296 20255 30113 40115 82201 333 59010 82818=
43533
AAXX 30154 43533 42460 13604 10291 20248 30112 40114 81201 333 59009 81818=
43577
AAXX 30154 43577 42465 29902 10286 20241 30119 40121 82201 333 59004 82818=
43588
AAXX 30154 43588 42465 23404 10279 20229 30118 40119 82202 333 59004 82818=
43599
AAXX 30154 43599 42460 33403 10290 20235 30116 40118 81101 333 59006 81819 83077=
Last Updated : 2017-03-30 20:02:43